Zandhoven, Belgium
Current Conditions -  °F | °C
As of 1:20 PM on Monday 26 Jan 2015 (Local Time) from EBAW Reporting Station
Light Rain Light Rain  
Wind Chill:   Ceiling: 500
Heat Index:   Visibility: 2.1mi
Dew Point:   Wind: 10mph
Humidity: 87%   Direction: 270°W
Pressure: 30.09"   Gusts: NA
Location:  51.21°N, 4.66°E
Report Text: EBAW 261220Z 27009KT 3500 -RADZ BR SCT004 BKN005 09/07 Q1019 NOSIG
Loading
Personal Weather Stations






























Interactive Weather Map New forecast layout! Learn more

10-Day Weather Forecast

Advertisements
Track Severe Weather on mobile